sensor_id;sensor_type;location;lat;lon;timestamp;P1;durP1;ratioP1;P2;durP2;ratioP2
19205;SDS011;59358;52.134;5.596;2022-09-29T00:01:46;21.90;;;14.38;;
19205;SDS011;59358;52.134;5.596;2022-09-29T00:04:14;19.80;;;13.82;;
19205;SDS011;59358;52.134;5.596;2022-09-29T00:06:41;19.20;;;13.60;;
19205;SDS011;59358;52.134;5.596;2022-09-29T00:09:09;23.80;;;14.27;;
19205;SDS011;59358;52.134;5.596;2022-09-29T00:11:36;17.30;;;13.60;;
19205;SDS011;59358;52.134;5.596;2022-09-29T00:14:03;20.25;;;13.60;;
19205;SDS011;59358;52.134;5.596;2022-09-29T00:16:30;20.42;;;13.77;;
19205;SDS011;59358;52.134;5.596;2022-09-29T00:18:57;21.63;;;14.57;;
19205;SDS011;59358;52.134;5.596;2022-09-29T00:21:24;25.17;;;14.73;;
19205;SDS011;59358;52.134;5.596;2022-09-29T00:23:51;21.85;;;14.73;;
19205;SDS011;59358;52.134;5.596;2022-09-29T00:26:20;17.75;;;13.27;;
19205;SDS011;59358;52.134;5.596;2022-09-29T00:28:48;23.83;;;14.82;;
19205;SDS011;59358;52.134;5.596;2022-09-29T00:31:18;22.52;;;14.52;;
19205;SDS011;59358;52.134;5.596;2022-09-29T00:33:45;21.17;;;15.10;;
19205;SDS011;59358;52.134;5.596;2022-09-29T00:36:13;19.90;;;15.02;;
19205;SDS011;59358;52.134;5.596;2022-09-29T00:38:42;21.13;;;14.77;;
19205;SDS011;59358;52.134;5.596;2022-09-29T00:41:12;22.83;;;16.20;;
19205;SDS011;59358;52.134;5.596;2022-09-29T00:43:48;20.80;;;14.25;;
19205;SDS011;59358;52.134;5.596;2022-09-29T00:46:18;19.13;;;14.00;;
19205;SDS011;59358;52.134;5.596;2022-09-29T00:48:48;18.73;;;13.40;;
19205;SDS011;59358;52.134;5.596;2022-09-29T00:51:16;18.48;;;13.05;;
19205;SDS011;59358;52.134;5.596;2022-09-29T00:53:44;19.67;;;13.05;;
19205;SDS011;59358;52.134;5.596;2022-09-29T00:56:12;18.17;;;13.15;;
19205;SDS011;59358;52.134;5.596;2022-09-29T00:58:41;16.48;;;11.95;;
19205;SDS011;59358;52.134;5.596;2022-09-29T01:01:16;19.88;;;14.07;;
19205;SDS011;59358;52.134;5.596;2022-09-29T01:03:44;18.38;;;12.88;;
19205;SDS011;59358;52.134;5.596;2022-09-29T01:06:12;16.35;;;11.93;;
19205;SDS011;59358;52.134;5.596;2022-09-29T01:08:46;18.85;;;12.90;;
19205;SDS011;59358;52.134;5.596;2022-09-29T01:11:19;19.10;;;12.88;;
19205;SDS011;59358;52.134;5.596;2022-09-29T01:13:47;19.02;;;12.75;;
19205;SDS011;59358;52.134;5.596;2022-09-29T01:16:14;19.80;;;13.00;;
19205;SDS011;59358;52.134;5.596;2022-09-29T01:18:43;16.90;;;12.55;;
19205;SDS011;59358;52.134;5.596;2022-09-29T01:21:14;16.40;;;13.18;;
19205;SDS011;59358;52.134;5.596;2022-09-29T01:23:55;15.38;;;12.20;;
19205;SDS011;59358;52.134;5.596;2022-09-29T01:32:32;17.17;;;11.45;;
19205;SDS011;59358;52.134;5.596;2022-09-29T01:35:07;18.92;;;12.25;;
19205;SDS011;59358;52.134;5.596;2022-09-29T01:37:43;15.90;;;11.73;;
19205;SDS011;59358;52.134;5.596;2022-09-29T01:40:21;15.13;;;11.40;;
19205;SDS011;59358;52.134;5.596;2022-09-29T01:42:54;15.63;;;11.90;;
19205;SDS011;59358;52.134;5.596;2022-09-29T01:45:27;16.50;;;12.73;;
19205;SDS011;59358;52.134;5.596;2022-09-29T01:47:59;15.98;;;12.18;;
19205;SDS011;59358;52.134;5.596;2022-09-29T01:50:31;16.45;;;13.20;;
19205;SDS011;59358;52.134;5.596;2022-09-29T01:53:06;18.45;;;14.00;;
19205;SDS011;59358;52.134;5.596;2022-09-29T01:55:37;21.20;;;14.07;;
19205;SDS011;59358;52.134;5.596;2022-09-29T01:58:09;18.40;;;12.48;;
19205;SDS011;59358;52.134;5.596;2022-09-29T02:00:42;19.02;;;13.82;;
19205;SDS011;59358;52.134;5.596;2022-09-29T02:03:15;20.17;;;13.63;;
19205;SDS011;59358;52.134;5.596;2022-09-29T02:05:46;21.23;;;13.65;;
19205;SDS011;59358;52.134;5.596;2022-09-29T02:08:17;20.10;;;14.30;;
19205;SDS011;59358;52.134;5.596;2022-09-29T02:10:51;20.08;;;14.27;;
19205;SDS011;59358;52.134;5.596;2022-09-29T02:13:24;21.17;;;14.18;;
19205;SDS011;59358;52.134;5.596;2022-09-29T02:15:52;21.17;;;14.00;;
19205;SDS011;59358;52.134;5.596;2022-09-29T02:18:24;19.65;;;13.38;;
19205;SDS011;59358;52.134;5.596;2022-09-29T02:20:55;22.60;;;14.95;;
19205;SDS011;59358;52.134;5.596;2022-09-29T02:23:21;22.58;;;14.40;;
19205;SDS011;59358;52.134;5.596;2022-09-29T02:25:49;23.83;;;14.25;;
19205;SDS011;59358;52.134;5.596;2022-09-29T02:28:17;24.98;;;15.30;;
19205;SDS011;59358;52.134;5.596;2022-09-29T02:30:44;21.85;;;15.02;;
19205;SDS011;59358;52.134;5.596;2022-09-29T02:33:18;22.58;;;14.60;;
19205;SDS011;59358;52.134;5.596;2022-09-29T02:35:50;24.63;;;15.15;;
19205;SDS011;59358;52.134;5.596;2022-09-29T02:38:24;21.48;;;14.43;;
19205;SDS011;59358;52.134;5.596;2022-09-29T02:41:03;23.33;;;15.23;;
19205;SDS011;59358;52.134;5.596;2022-09-29T02:43:38;24.08;;;15.60;;
19205;SDS011;59358;52.134;5.596;2022-09-29T02:46:24;21.05;;;14.85;;
19205;SDS011;59358;52.134;5.596;2022-09-29T02:49:11;21.63;;;14.25;;
19205;SDS011;59358;52.134;5.596;2022-09-29T02:51:51;25.92;;;14.55;;
19205;SDS011;59358;52.134;5.596;2022-09-29T02:54:26;22.20;;;14.13;;
19205;SDS011;59358;52.134;5.596;2022-09-29T02:57:07;27.27;;;15.73;;
19205;SDS011;59358;52.134;5.596;2022-09-29T02:59:44;22.65;;;15.88;;
19205;SDS011;59358;52.134;5.596;2022-09-29T03:02:22;22.38;;;15.05;;
19205;SDS011;59358;52.134;5.596;2022-09-29T03:04:49;25.45;;;14.55;;
19205;SDS011;59358;52.134;5.596;2022-09-29T03:07:19;21.88;;;14.95;;
19205;SDS011;59358;52.134;5.596;2022-09-29T03:09:46;23.83;;;15.30;;
19205;SDS011;59358;52.134;5.596;2022-09-29T03:12:13;25.90;;;17.10;;
19205;SDS011;59358;52.134;5.596;2022-09-29T03:14:40;25.33;;;15.85;;
19205;SDS011;59358;52.134;5.596;2022-09-29T03:17:06;25.33;;;16.20;;
19205;SDS011;59358;52.134;5.596;2022-09-29T03:19:33;24.05;;;15.50;;
19205;SDS011;59358;52.134;5.596;2022-09-29T03:22:00;24.10;;;14.85;;
19205;SDS011;59358;52.134;5.596;2022-09-29T03:24:29;21.33;;;14.85;;
19205;SDS011;59358;52.134;5.596;2022-09-29T03:26:56;24.02;;;15.65;;
19205;SDS011;59358;52.134;5.596;2022-09-29T03:29:23;28.90;;;17.80;;
19205;SDS011;59358;52.134;5.596;2022-09-29T03:31:49;25.60;;;15.80;;
19205;SDS011;59358;52.134;5.596;2022-09-29T03:34:16;29.17;;;17.63;;
19205;SDS011;59358;52.134;5.596;2022-09-29T03:36:43;30.17;;;18.17;;
19205;SDS011;59358;52.134;5.596;2022-09-29T03:39:10;28.55;;;17.50;;
19205;SDS011;59358;52.134;5.596;2022-09-29T03:41:39;26.48;;;15.82;;
19205;SDS011;59358;52.134;5.596;2022-09-29T03:44:06;31.52;;;17.33;;
19205;SDS011;59358;52.134;5.596;2022-09-29T03:46:33;26.88;;;16.70;;
19205;SDS011;59358;52.134;5.596;2022-09-29T03:49:00;26.95;;;16.15;;
19205;SDS011;59358;52.134;5.596;2022-09-29T03:51:27;25.90;;;15.40;;
19205;SDS011;59358;52.134;5.596;2022-09-29T03:53:54;26.67;;;17.75;;
19205;SDS011;59358;52.134;5.596;2022-09-29T03:56:20;20.95;;;13.75;;
19205;SDS011;59358;52.134;5.596;2022-09-29T03:58:49;22.25;;;14.40;;
19205;SDS011;59358;52.134;5.596;2022-09-29T04:01:16;24.77;;;14.75;;
19205;SDS011;59358;52.134;5.596;2022-09-29T04:03:43;22.95;;;14.48;;
19205;SDS011;59358;52.134;5.596;2022-09-29T04:06:11;22.95;;;15.30;;
19205;SDS011;59358;52.134;5.596;2022-09-29T04:08:37;24.83;;;15.77;;
19205;SDS011;59358;52.134;5.596;2022-09-29T04:11:05;22.27;;;15.52;;
19205;SDS011;59358;52.134;5.596;2022-09-29T04:13:32;24.88;;;17.02;;
19205;SDS011;59358;52.134;5.596;2022-09-29T04:16:01;29.40;;;16.95;;
19205;SDS011;59358;52.134;5.596;2022-09-29T04:18:29;29.55;;;18.13;;
19205;SDS011;59358;52.134;5.596;2022-09-29T04:20:57;28.27;;;17.98;;
19205;SDS011;59358;52.134;5.596;2022-09-29T04:23:24;30.17;;;19.58;;
19205;SDS011;59358;52.134;5.596;2022-09-29T04:25:51;28.33;;;18.85;;
19205;SDS011;59358;52.134;5.596;2022-09-29T04:28:19;26.77;;;18.13;;
19205;SDS011;59358;52.134;5.596;2022-09-29T04:30:46;25.27;;;16.90;;
19205;SDS011;59358;52.134;5.596;2022-09-29T04:33:14;34.90;;;17.67;;
19205;SDS011;59358;52.134;5.596;2022-09-29T04:35:41;35.53;;;19.60;;
19205;SDS011;59358;52.134;5.596;2022-09-29T04:38:08;28.25;;;18.15;;
19205;SDS011;59358;52.134;5.596;2022-09-29T04:40:35;30.52;;;18.77;;
19205;SDS011;59358;52.134;5.596;2022-09-29T04:43:02;28.40;;;17.45;;
19205;SDS011;59358;52.134;5.596;2022-09-29T04:45:30;31.95;;;18.30;;
19205;SDS011;59358;52.134;5.596;2022-09-29T04:47:57;28.67;;;17.08;;
19205;SDS011;59358;52.134;5.596;2022-09-29T04:50:25;32.08;;;18.13;;
19205;SDS011;59358;52.134;5.596;2022-09-29T04:52:53;29.10;;;19.17;;
19205;SDS011;59358;52.134;5.596;2022-09-29T04:55:20;32.40;;;19.60;;
19205;SDS011;59358;52.134;5.596;2022-09-29T04:57:47;31.48;;;19.85;;
19205;SDS011;59358;52.134;5.596;2022-09-29T05:00:14;34.58;;;20.05;;
19205;SDS011;59358;52.134;5.596;2022-09-29T05:02:41;35.97;;;18.77;;
19205;SDS011;59358;52.134;5.596;2022-09-29T05:05:08;31.38;;;18.17;;
19205;SDS011;59358;52.134;5.596;2022-09-29T05:07:38;35.10;;;19.70;;
19205;SDS011;59358;52.134;5.596;2022-09-29T05:10:05;35.20;;;20.92;;
19205;SDS011;59358;52.134;5.596;2022-09-29T05:12:33;36.83;;;21.58;;
19205;SDS011;59358;52.134;5.596;2022-09-29T05:15:00;33.17;;;20.15;;
19205;SDS011;59358;52.134;5.596;2022-09-29T05:17:28;35.38;;;22.40;;
19205;SDS011;59358;52.134;5.596;2022-09-29T05:19:55;35.33;;;23.30;;
19205;SDS011;59358;52.134;5.596;2022-09-29T05:22:22;30.48;;;20.10;;
19205;SDS011;59358;52.134;5.596;2022-09-29T05:24:51;32.83;;;21.23;;
19205;SDS011;59358;52.134;5.596;2022-09-29T05:27:19;35.40;;;21.27;;
19205;SDS011;59358;52.134;5.596;2022-09-29T05:29:46;35.15;;;21.95;;
19205;SDS011;59358;52.134;5.596;2022-09-29T05:32:14;33.85;;;21.65;;
19205;SDS011;59358;52.134;5.596;2022-09-29T05:34:41;34.90;;;20.38;;
19205;SDS011;59358;52.134;5.596;2022-09-29T05:37:08;32.05;;;20.25;;
19205;SDS011;59358;52.134;5.596;2022-09-29T05:39:35;30.13;;;19.30;;
19205;SDS011;59358;52.134;5.596;2022-09-29T05:42:03;32.05;;;18.33;;
19205;SDS011;59358;52.134;5.596;2022-09-29T05:44:31;28.25;;;18.08;;
19205;SDS011;59358;52.134;5.596;2022-09-29T05:46:58;30.90;;;19.02;;
19205;SDS011;59358;52.134;5.596;2022-09-29T05:49:25;34.63;;;20.90;;
19205;SDS011;59358;52.134;5.596;2022-09-29T05:51:52;42.25;;;23.55;;
19205;SDS011;59358;52.134;5.596;2022-09-29T05:54:19;37.05;;;22.48;;
19205;SDS011;59358;52.134;5.596;2022-09-29T05:56:46;36.70;;;22.42;;
19205;SDS011;59358;52.134;5.596;2022-09-29T05:59:14;38.38;;;24.77;;
19205;SDS011;59358;52.134;5.596;2022-09-29T06:01:41;45.15;;;25.30;;
19205;SDS011;59358;52.134;5.596;2022-09-29T06:04:08;38.88;;;24.58;;
19205;SDS011;59358;52.134;5.596;2022-09-29T06:06:35;37.53;;;23.05;;
19205;SDS011;59358;52.134;5.596;2022-09-29T06:09:04;40.92;;;24.67;;
19205;SDS011;59358;52.134;5.596;2022-09-29T06:11:31;45.85;;;24.58;;
19205;SDS011;59358;52.134;5.596;2022-09-29T06:13:58;42.67;;;24.58;;
19205;SDS011;59358;52.134;5.596;2022-09-29T06:16:30;40.50;;;22.83;;
19205;SDS011;59358;52.134;5.596;2022-09-29T06:18:58;40.97;;;23.70;;
19205;SDS011;59358;52.134;5.596;2022-09-29T06:21:26;45.28;;;25.00;;
19205;SDS011;59358;52.134;5.596;2022-09-29T06:23:54;47.28;;;26.90;;
19205;SDS011;59358;52.134;5.596;2022-09-29T06:26:22;57.75;;;30.00;;
19205;SDS011;59358;52.134;5.596;2022-09-29T06:28:50;57.08;;;31.60;;
19205;SDS011;59358;52.134;5.596;2022-09-29T06:31:18;58.85;;;30.67;;
19205;SDS011;59358;52.134;5.596;2022-09-29T06:33:47;59.95;;;31.48;;
19205;SDS011;59358;52.134;5.596;2022-09-29T06:36:14;58.50;;;33.20;;
19205;SDS011;59358;52.134;5.596;2022-09-29T06:39:01;57.85;;;32.88;;
19205;SDS011;59358;52.134;5.596;2022-09-29T06:41:28;52.92;;;33.13;;
19205;SDS011;59358;52.134;5.596;2022-09-29T06:43:55;49.50;;;30.33;;
19205;SDS011;59358;52.134;5.596;2022-09-29T06:46:22;54.95;;;31.83;;
19205;SDS011;59358;52.134;5.596;2022-09-29T06:48:52;51.97;;;31.20;;
19205;SDS011;59358;52.134;5.596;2022-09-29T06:51:19;53.60;;;32.50;;
19205;SDS011;59358;52.134;5.596;2022-09-29T06:53:47;79.80;;;34.60;;
19205;SDS011;59358;52.134;5.596;2022-09-29T06:56:14;66.15;;;38.08;;
19205;SDS011;59358;52.134;5.596;2022-09-29T06:58:41;63.85;;;35.42;;
19205;SDS011;59358;52.134;5.596;2022-09-29T07:01:09;85.50;;;43.67;;
19205;SDS011;59358;52.134;5.596;2022-09-29T07:03:36;79.78;;;43.70;;
19205;SDS011;59358;52.134;5.596;2022-09-29T07:06:06;77.22;;;42.60;;
19205;SDS011;59358;52.134;5.596;2022-09-29T07:08:33;77.32;;;42.72;;
19205;SDS011;59358;52.134;5.596;2022-09-29T07:11:03;77.82;;;41.95;;
19205;SDS011;59358;52.134;5.596;2022-09-29T07:13:30;76.20;;;40.95;;
19205;SDS011;59358;52.134;5.596;2022-09-29T07:16:02;66.50;;;39.15;;
19205;SDS011;59358;52.134;5.596;2022-09-29T07:18:33;67.82;;;40.08;;
19205;SDS011;59358;52.134;5.596;2022-09-29T07:21:01;80.35;;;45.35;;
19205;SDS011;59358;52.134;5.596;2022-09-29T07:23:30;77.15;;;44.47;;
19205;SDS011;59358;52.134;5.596;2022-09-29T07:25:57;82.15;;;46.55;;
19205;SDS011;59358;52.134;5.596;2022-09-29T07:28:25;89.70;;;49.58;;
19205;SDS011;59358;52.134;5.596;2022-09-29T07:30:58;96.68;;;53.85;;
19205;SDS011;59358;52.134;5.596;2022-09-29T07:33:26;105.97;;;54.58;;
19205;SDS011;59358;52.134;5.596;2022-09-29T07:35:53;115.85;;;58.25;;
19205;SDS011;59358;52.134;5.596;2022-09-29T07:38:20;125.18;;;60.00;;
19205;SDS011;59358;52.134;5.596;2022-09-29T07:40:48;146.15;;;63.97;;
19205;SDS011;59358;52.134;5.596;2022-09-29T07:43:15;137.48;;;62.72;;
19205;SDS011;59358;52.134;5.596;2022-09-29T07:45:46;139.88;;;64.88;;
19205;SDS011;59358;52.134;5.596;2022-09-29T07:48:13;120.57;;;59.85;;
19205;SDS011;59358;52.134;5.596;2022-09-29T07:50:41;148.70;;;66.75;;
19205;SDS011;59358;52.134;5.596;2022-09-29T07:53:09;153.95;;;66.50;;
19205;SDS011;59358;52.134;5.596;2022-09-29T07:55:37;158.80;;;62.35;;
19205;SDS011;59358;52.134;5.596;2022-09-29T07:58:06;149.70;;;62.15;;
19205;SDS011;59358;52.134;5.596;2022-09-29T08:00:33;144.60;;;59.10;;
19205;SDS011;59358;52.134;5.596;2022-09-29T08:03:00;142.73;;;55.00;;
19205;SDS011;59358;52.134;5.596;2022-09-29T08:05:28;162.43;;;60.97;;
19205;SDS011;59358;52.134;5.596;2022-09-29T08:07:56;140.65;;;61.05;;
19205;SDS011;59358;52.134;5.596;2022-09-29T08:10:23;128.20;;;60.75;;
19205;SDS011;59358;52.134;5.596;2022-09-29T08:12:51;123.32;;;53.33;;
19205;SDS011;59358;52.134;5.596;2022-09-29T08:15:20;143.38;;;59.03;;
19205;SDS011;59358;52.134;5.596;2022-09-29T08:17:47;112.00;;;53.50;;
19205;SDS011;59358;52.134;5.596;2022-09-29T08:20:16;138.35;;;72.50;;
19205;SDS011;59358;52.134;5.596;2022-09-29T08:22:43;118.10;;;54.42;;
19205;SDS011;59358;52.134;5.596;2022-09-29T08:25:10;108.18;;;56.30;;
19205;SDS011;59358;52.134;5.596;2022-09-29T08:27:37;116.60;;;58.08;;
19205;SDS011;59358;52.134;5.596;2022-09-29T08:30:04;109.65;;;55.45;;
19205;SDS011;59358;52.134;5.596;2022-09-29T08:32:35;108.70;;;54.97;;
19205;SDS011;59358;52.134;5.596;2022-09-29T08:35:03;125.38;;;59.20;;
19205;SDS011;59358;52.134;5.596;2022-09-29T08:37:30;112.43;;;56.28;;
19205;SDS011;59358;52.134;5.596;2022-09-29T08:39:57;113.22;;;57.95;;
19205;SDS011;59358;52.134;5.596;2022-09-29T08:42:25;106.40;;;54.72;;
19205;SDS011;59358;52.134;5.596;2022-09-29T08:45:04;100.90;;;54.88;;
19205;SDS011;59358;52.134;5.596;2022-09-29T08:47:36;95.63;;;52.22;;
19205;SDS011;59358;52.134;5.596;2022-09-29T08:50:09;82.40;;;48.33;;
19205;SDS011;59358;52.134;5.596;2022-09-29T08:52:40;75.80;;;41.65;;
19205;SDS011;59358;52.134;5.596;2022-09-29T08:55:20;70.60;;;42.75;;
19205;SDS011;59358;52.134;5.596;2022-09-29T08:57:54;66.85;;;40.95;;
19205;SDS011;59358;52.134;5.596;2022-09-29T09:00:27;61.08;;;39.67;;
19205;SDS011;59358;52.134;5.596;2022-09-29T09:03:10;63.00;;;40.05;;
19205;SDS011;59358;52.134;5.596;2022-09-29T09:11:46;65.15;;;42.15;;
19205;SDS011;59358;52.134;5.596;2022-09-29T09:14:35;62.20;;;42.42;;
19205;SDS011;59358;52.134;5.596;2022-09-29T09:17:18;68.70;;;43.17;;
19205;SDS011;59358;52.134;5.596;2022-09-29T09:19:57;64.72;;;42.95;;
19205;SDS011;59358;52.134;5.596;2022-09-29T09:22:32;69.70;;;44.03;;
19205;SDS011;59358;52.134;5.596;2022-09-29T09:25:10;61.22;;;41.95;;
19205;SDS011;59358;52.134;5.596;2022-09-29T09:27:46;65.38;;;45.13;;
19205;SDS011;59358;52.134;5.596;2022-09-29T09:30:17;69.68;;;43.72;;
19205;SDS011;59358;52.134;5.596;2022-09-29T09:32:46;63.20;;;43.83;;
19205;SDS011;59358;52.134;5.596;2022-09-29T09:35:23;70.60;;;45.72;;
19205;SDS011;59358;52.134;5.596;2022-09-29T09:37:58;68.57;;;46.92;;
19205;SDS011;59358;52.134;5.596;2022-09-29T09:40:27;60.72;;;42.33;;
19205;SDS011;59358;52.134;5.596;2022-09-29T09:43:02;63.67;;;42.42;;
19205;SDS011;59358;52.134;5.596;2022-09-29T09:45:33;57.47;;;41.25;;
19205;SDS011;59358;52.134;5.596;2022-09-29T09:48:06;64.43;;;45.13;;
19205;SDS011;59358;52.134;5.596;2022-09-29T09:50:40;62.85;;;43.05;;
19205;SDS011;59358;52.134;5.596;2022-09-29T09:53:09;67.53;;;43.47;;
19205;SDS011;59358;52.134;5.596;2022-09-29T09:55:40;59.78;;;40.92;;
19205;SDS011;59358;52.134;5.596;2022-09-29T10:01:05;62.88;;;43.30;;
19205;SDS011;59358;52.134;5.596;2022-09-29T10:03:35;60.78;;;41.65;;
19205;SDS011;59358;52.134;5.596;2022-09-29T10:06:05;58.70;;;41.20;;
19205;SDS011;59358;52.134;5.596;2022-09-29T10:08:34;60.15;;;42.10;;
19205;SDS011;59358;52.134;5.596;2022-09-29T10:11:07;63.58;;;41.42;;
19205;SDS011;59358;52.134;5.596;2022-09-29T10:13:45;61.83;;;42.65;;
19205;SDS011;59358;52.134;5.596;2022-09-29T10:16:14;65.65;;;45.70;;
19205;SDS011;59358;52.134;5.596;2022-09-29T10:18:43;59.53;;;43.17;;
19205;SDS011;59358;52.134;5.596;2022-09-29T10:21:33;62.22;;;44.75;;
19205;SDS011;59358;52.134;5.596;2022-09-29T10:24:02;57.97;;;41.25;;
19205;SDS011;59358;52.134;5.596;2022-09-29T10:26:32;58.40;;;41.65;;
19205;SDS011;59358;52.134;5.596;2022-09-29T10:29:03;54.80;;;41.90;;
19205;SDS011;59358;52.134;5.596;2022-09-29T10:31:43;59.95;;;39.50;;
19205;SDS011;59358;52.134;5.596;2022-09-29T10:34:24;53.50;;;38.45;;
19205;SDS011;59358;52.134;5.596;2022-09-29T10:36:53;50.30;;;36.22;;
19205;SDS011;59358;52.134;5.596;2022-09-29T10:39:30;45.83;;;31.20;;
19205;SDS011;59358;52.134;5.596;2022-09-29T10:41:58;41.40;;;29.05;;
19205;SDS011;59358;52.134;5.596;2022-09-29T10:44:29;39.63;;;29.60;;
19205;SDS011;59358;52.134;5.596;2022-09-29T10:46:58;38.95;;;27.63;;
19205;SDS011;59358;52.134;5.596;2022-09-29T10:49:26;41.53;;;30.83;;
19205;SDS011;59358;52.134;5.596;2022-09-29T10:51:57;41.55;;;31.25;;
19205;SDS011;59358;52.134;5.596;2022-09-29T10:54:28;34.50;;;24.80;;
19205;SDS011;59358;52.134;5.596;2022-09-29T10:56:57;31.08;;;23.23;;
19205;SDS011;59358;52.134;5.596;2022-09-29T10:59:26;33.22;;;24.00;;
19205;SDS011;59358;52.134;5.596;2022-09-29T11:01:54;36.20;;;24.75;;
19205;SDS011;59358;52.134;5.596;2022-09-29T11:04:25;31.50;;;24.13;;
19205;SDS011;59358;52.134;5.596;2022-09-29T11:06:56;29.90;;;22.20;;
19205;SDS011;59358;52.134;5.596;2022-09-29T11:09:35;27.90;;;19.90;;
19205;SDS011;59358;52.134;5.596;2022-09-29T11:12:04;33.30;;;22.75;;
19205;SDS011;59358;52.134;5.596;2022-09-29T11:14:48;26.27;;;19.23;;
19205;SDS011;59358;52.134;5.596;2022-09-29T11:17:22;24.45;;;19.10;;
19205;SDS011;59358;52.134;5.596;2022-09-29T11:19:50;24.25;;;18.83;;
19205;SDS011;59358;52.134;5.596;2022-09-29T11:22:33;29.27;;;20.73;;
19205;SDS011;59358;52.134;5.596;2022-09-29T11:25:16;30.73;;;20.98;;
19205;SDS011;59358;52.134;5.596;2022-09-29T11:28:09;26.00;;;17.23;;
19205;SDS011;59358;52.134;5.596;2022-09-29T11:30:52;20.02;;;14.75;;
19205;SDS011;59358;52.134;5.596;2022-09-29T11:33:35;23.90;;;16.85;;
19205;SDS011;59358;52.134;5.596;2022-09-29T11:36:12;23.20;;;17.70;;
19205;SDS011;59358;52.134;5.596;2022-09-29T11:38:53;23.45;;;17.52;;
19205;SDS011;59358;52.134;5.596;2022-09-29T11:41:32;18.92;;;12.82;;
19205;SDS011;59358;52.134;5.596;2022-09-29T11:44:23;13.70;;;11.13;;
19205;SDS011;59358;52.134;5.596;2022-09-29T11:47:14;11.13;;;8.63;;
19205;SDS011;59358;52.134;5.596;2022-09-29T11:49:52;15.75;;;10.57;;
19205;SDS011;59358;52.134;5.596;2022-09-29T11:52:34;14.52;;;10.73;;
19205;SDS011;59358;52.134;5.596;2022-09-29T11:58:53;14.73;;;10.90;;
19205;SDS011;59358;52.134;5.596;2022-09-29T12:05:24;9.75;;;7.05;;
19205;SDS011;59358;52.134;5.596;2022-09-29T12:08:00;13.70;;;9.88;;
19205;SDS011;59358;52.134;5.596;2022-09-29T12:10:44;16.33;;;11.75;;
19205;SDS011;59358;52.134;5.596;2022-09-29T12:13:36;15.07;;;11.32;;
19205;SDS011;59358;52.134;5.596;2022-09-29T12:16:29;13.70;;;10.00;;
19205;SDS011;59358;52.134;5.596;2022-09-29T12:19:25;13.65;;;10.27;;
19205;SDS011;59358;52.134;5.596;2022-09-29T12:22:04;14.63;;;9.75;;
19205;SDS011;59358;52.134;5.596;2022-09-29T12:24:56;13.77;;;9.77;;
19205;SDS011;59358;52.134;5.596;2022-09-29T12:27:31;10.85;;;7.60;;
19205;SDS011;59358;52.134;5.596;2022-09-29T12:30:21;9.00;;;7.05;;
19205;SDS011;59358;52.134;5.596;2022-09-29T12:33:01;14.05;;;10.52;;
19205;SDS011;59358;52.134;5.596;2022-09-29T12:38:58;13.20;;;9.98;;
19205;SDS011;59358;52.134;5.596;2022-09-29T12:41:45;11.80;;;9.00;;
19205;SDS011;59358;52.134;5.596;2022-09-29T12:44:43;14.68;;;10.35;;
19205;SDS011;59358;52.134;5.596;2022-09-29T12:47:32;23.92;;;11.80;;
19205;SDS011;59358;52.134;5.596;2022-09-29T12:50:17;13.80;;;10.45;;
19205;SDS011;59358;52.134;5.596;2022-09-29T12:52:47;12.15;;;9.77;;
19205;SDS011;59358;52.134;5.596;2022-09-29T12:55:40;11.68;;;9.73;;
19205;SDS011;59358;52.134;5.596;2022-09-29T12:58:34;9.65;;;7.45;;
19205;SDS011;59358;52.134;5.596;2022-09-29T13:01:16;9.00;;;6.88;;
19205;SDS011;59358;52.134;5.596;2022-09-29T13:04:07;8.90;;;7.20;;
19205;SDS011;59358;52.134;5.596;2022-09-29T13:07:02;10.90;;;8.48;;
19205;SDS011;59358;52.134;5.596;2022-09-29T13:10:05;6.88;;;5.00;;
19205;SDS011;59358;52.134;5.596;2022-09-29T13:13:05;10.32;;;8.35;;
19205;SDS011;59358;52.134;5.596;2022-09-29T13:15:57;12.43;;;8.38;;
19205;SDS011;59358;52.134;5.596;2022-09-29T13:18:48;11.13;;;8.60;;
19205;SDS011;59358;52.134;5.596;2022-09-29T13:21:37;11.98;;;8.48;;
19205;SDS011;59358;52.134;5.596;2022-09-29T13:27:09;11.23;;;9.20;;
19205;SDS011;59358;52.134;5.596;2022-09-29T13:29:54;10.98;;;8.45;;
19205;SDS011;59358;52.134;5.596;2022-09-29T13:32:26;10.25;;;8.77;;
19205;SDS011;59358;52.134;5.596;2022-09-29T13:34:54;10.75;;;8.68;;
19205;SDS011;59358;52.134;5.596;2022-09-29T13:37:24;8.02;;;7.18;;
19205;SDS011;59358;52.134;5.596;2022-09-29T13:39:56;6.93;;;6.22;;
19205;SDS011;59358;52.134;5.596;2022-09-29T13:42:37;6.78;;;6.07;;
19205;SDS011;59358;52.134;5.596;2022-09-29T13:54:21;8.77;;;7.75;;
19205;SDS011;59358;52.134;5.596;2022-09-29T13:57:20;11.77;;;7.68;;
19205;SDS011;59358;52.134;5.596;2022-09-29T14:00:01;9.63;;;7.72;;
19205;SDS011;59358;52.134;5.596;2022-09-29T14:02:43;7.50;;;6.20;;
19205;SDS011;59358;52.134;5.596;2022-09-29T14:08:06;8.07;;;6.25;;
19205;SDS011;59358;52.134;5.596;2022-09-29T14:10:41;6.45;;;5.75;;
19205;SDS011;59358;52.134;5.596;2022-09-29T14:13:14;6.57;;;5.13;;
19205;SDS011;59358;52.134;5.596;2022-09-29T14:15:51;5.13;;;4.63;;
19205;SDS011;59358;52.134;5.596;2022-09-29T14:18:30;6.85;;;5.03;;
19205;SDS011;59358;52.134;5.596;2022-09-29T14:21:01;6.55;;;5.65;;
19205;SDS011;59358;52.134;5.596;2022-09-29T14:23:46;6.30;;;5.30;;
19205;SDS011;59358;52.134;5.596;2022-09-29T14:29:13;5.53;;;4.80;;
19205;SDS011;59358;52.134;5.596;2022-09-29T14:31:45;7.57;;;5.10;;
19205;SDS011;59358;52.134;5.596;2022-09-29T14:34:15;4.20;;;3.80;;
19205;SDS011;59358;52.134;5.596;2022-09-29T14:36:45;4.85;;;4.40;;
19205;SDS011;59358;52.134;5.596;2022-09-29T14:39:13;2.95;;;2.40;;
19205;SDS011;59358;52.134;5.596;2022-09-29T14:41:41;3.90;;;3.50;;
19205;SDS011;59358;52.134;5.596;2022-09-29T14:44:10;4.28;;;3.75;;
19205;SDS011;59358;52.134;5.596;2022-09-29T14:50:17;2.55;;;2.35;;
19205;SDS011;59358;52.134;5.596;2022-09-29T14:53:26;4.20;;;2.45;;
19205;SDS011;59358;52.134;5.596;2022-09-29T14:56:10;3.45;;;2.67;;
19205;SDS011;59358;52.134;5.596;2022-09-29T14:59:01;3.25;;;2.88;;
19205;SDS011;59358;52.134;5.596;2022-09-29T15:01:36;3.50;;;2.90;;
19205;SDS011;59358;52.134;5.596;2022-09-29T15:04:10;3.25;;;2.67;;
19205;SDS011;59358;52.134;5.596;2022-09-29T15:06:44;3.25;;;2.10;;
19205;SDS011;59358;52.134;5.596;2022-09-29T15:09:14;2.83;;;2.40;;
19205;SDS011;59358;52.134;5.596;2022-09-29T15:11:43;2.17;;;2.00;;
19205;SDS011;59358;52.134;5.596;2022-09-29T15:14:24;6.18;;;2.50;;
19205;SDS011;59358;52.134;5.596;2022-09-29T15:17:00;2.70;;;2.38;;
19205;SDS011;59358;52.134;5.596;2022-09-29T15:19:43;4.43;;;3.10;;
19205;SDS011;59358;52.134;5.596;2022-09-29T15:22:23;5.47;;;2.80;;
19205;SDS011;59358;52.134;5.596;2022-09-29T15:25:15;4.13;;;3.13;;
19205;SDS011;59358;52.134;5.596;2022-09-29T15:27:48;4.05;;;3.13;;
19205;SDS011;59358;52.134;5.596;2022-09-29T15:30:18;4.13;;;3.20;;
19205;SDS011;59358;52.134;5.596;2022-09-29T15:32:48;3.33;;;2.80;;
19205;SDS011;59358;52.134;5.596;2022-09-29T15:35:19;2.95;;;2.60;;
19205;SDS011;59358;52.134;5.596;2022-09-29T15:37:55;2.60;;;2.38;;
19205;SDS011;59358;52.134;5.596;2022-09-29T15:40:24;2.83;;;2.55;;
19205;SDS011;59358;52.134;5.596;2022-09-29T15:42:52;3.10;;;2.25;;